sensor_id;sensor_type;location;lat;lon;timestamp;temperature;humidity
49511;DHT22;35413;48.776;9.204;2022-08-01T00:00:10;26.70;43.40
49511;DHT22;35413;48.776;9.204;2022-08-01T00:02:36;26.70;43.40
49511;DHT22;35413;48.776;9.204;2022-08-01T00:05:07;26.70;43.60
49511;DHT22;35413;48.776;9.204;2022-08-01T00:07:34;26.70;43.60
49511;DHT22;35413;48.776;9.204;2022-08-01T00:10:01;26.70;43.40
49511;DHT22;35413;48.776;9.204;2022-08-01T00:12:27;26.70;43.50
49511;DHT22;35413;48.776;9.204;2022-08-01T00:14:52;26.70;43.50
49511;DHT22;35413;48.776;9.204;2022-08-01T00:17:18;26.70;43.60
49511;DHT22;35413;48.776;9.204;2022-08-01T00:19:44;26.60;43.50
49511;DHT22;35413;48.776;9.204;2022-08-01T00:22:09;26.70;43.60
49511;DHT22;35413;48.776;9.204;2022-08-01T00:24:35;26.60;43.50
49511;DHT22;35413;48.776;9.204;2022-08-01T00:27:00;26.60;43.70
49511;DHT22;35413;48.776;9.204;2022-08-01T00:29:26;26.60;43.60
49511;DHT22;35413;48.776;9.204;2022-08-01T00:31:52;26.60;43.60
49511;DHT22;35413;48.776;9.204;2022-08-01T00:34:17;26.60;43.80
49511;DHT22;35413;48.776;9.204;2022-08-01T00:36:43;26.60;43.70
49511;DHT22;35413;48.776;9.204;2022-08-01T00:39:09;26.60;43.80
49511;DHT22;35413;48.776;9.204;2022-08-01T00:41:34;26.60;43.70
49511;DHT22;35413;48.776;9.204;2022-08-01T00:44:06;26.60;43.80
49511;DHT22;35413;48.776;9.204;2022-08-01T00:46:33;26.60;43.90
49511;DHT22;35413;48.776;9.204;2022-08-01T00:48:59;26.60;43.90
49511;DHT22;35413;48.776;9.204;2022-08-01T00:51:25;26.60;43.90
49511;DHT22;35413;48.776;9.204;2022-08-01T00:53:52;26.60;43.80
49511;DHT22;35413;48.776;9.204;2022-08-01T00:56:19;26.60;44.00
49511;DHT22;35413;48.776;9.204;2022-08-01T00:58:46;26.60;43.90
49511;DHT22;35413;48.776;9.204;2022-08-01T01:01:12;26.60;44.00
49511;DHT22;35413;48.776;9.204;2022-08-01T01:03:38;26.50;44.10
49511;DHT22;35413;48.776;9.204;2022-08-01T01:06:39;26.60;44.20
49511;DHT22;35413;48.776;9.204;2022-08-01T01:15:04;26.60;44.30
49511;DHT22;35413;48.776;9.204;2022-08-01T01:17:41;26.50;44.20
49511;DHT22;35413;48.776;9.204;2022-08-01T01:20:12;26.60;44.30
49511;DHT22;35413;48.776;9.204;2022-08-01T01:22:46;26.60;44.40
49511;DHT22;35413;48.776;9.204;2022-08-01T01:25:28;26.60;44.50
49511;DHT22;35413;48.776;9.204;2022-08-01T01:30:32;26.60;44.60
49511;DHT22;35413;48.776;9.204;2022-08-01T01:33:03;26.50;44.50
49511;DHT22;35413;48.776;9.204;2022-08-01T01:35:35;26.60;44.70
49511;DHT22;35413;48.776;9.204;2022-08-01T01:38:09;26.60;44.70
49511;DHT22;35413;48.776;9.204;2022-08-01T01:40:37;26.50;44.70
49511;DHT22;35413;48.776;9.204;2022-08-01T01:43:04;26.60;44.80
49511;DHT22;35413;48.776;9.204;2022-08-01T01:45:30;26.60;44.80
49511;DHT22;35413;48.776;9.204;2022-08-01T01:47:57;26.50;44.80
49511;DHT22;35413;48.776;9.204;2022-08-01T01:50:23;26.50;44.90
49511;DHT22;35413;48.776;9.204;2022-08-01T01:52:50;26.50;45.00
49511;DHT22;35413;48.776;9.204;2022-08-01T01:55:19;26.50;45.00
49511;DHT22;35413;48.776;9.204;2022-08-01T01:57:47;26.50;45.10
49511;DHT22;35413;48.776;9.204;2022-08-01T02:00:14;26.50;45.10
49511;DHT22;35413;48.776;9.204;2022-08-01T02:02:41;26.50;45.20
49511;DHT22;35413;48.776;9.204;2022-08-01T02:05:09;26.50;45.30
49511;DHT22;35413;48.776;9.204;2022-08-01T02:07:37;26.50;45.40
49511;DHT22;35413;48.776;9.204;2022-08-01T02:10:05;26.50;45.40
49511;DHT22;35413;48.776;9.204;2022-08-01T02:12:35;26.50;45.40
49511;DHT22;35413;48.776;9.204;2022-08-01T02:15:02;26.50;45.50
49511;DHT22;35413;48.776;9.204;2022-08-01T02:17:30;26.50;45.50
49511;DHT22;35413;48.776;9.204;2022-08-01T02:19:56;26.50;45.60
49511;DHT22;35413;48.776;9.204;2022-08-01T02:22:42;26.50;45.60
49511;DHT22;35413;48.776;9.204;2022-08-01T02:25:15;26.50;45.60
49511;DHT22;35413;48.776;9.204;2022-08-01T02:30:23;26.50;45.80
49511;DHT22;35413;48.776;9.204;2022-08-01T02:32:55;26.50;45.80
49511;DHT22;35413;48.776;9.204;2022-08-01T02:35:26;26.50;45.80
49511;DHT22;35413;48.776;9.204;2022-08-01T02:37:53;26.40;45.80
49511;DHT22;35413;48.776;9.204;2022-08-01T02:40:20;26.50;45.90
49511;DHT22;35413;48.776;9.204;2022-08-01T02:42:50;26.50;46.00
49511;DHT22;35413;48.776;9.204;2022-08-01T02:45:18;26.40;46.00
49511;DHT22;35413;48.776;9.204;2022-08-01T02:47:47;26.50;46.70
49511;DHT22;35413;48.776;9.204;2022-08-01T02:50:14;26.40;46.00
49511;DHT22;35413;48.776;9.204;2022-08-01T02:52:44;26.40;46.00
49511;DHT22;35413;48.776;9.204;2022-08-01T02:55:12;26.40;46.00
49511;DHT22;35413;48.776;9.204;2022-08-01T02:57:39;26.50;46.20
49511;DHT22;35413;48.776;9.204;2022-08-01T03:00:06;26.50;46.20
49511;DHT22;35413;48.776;9.204;2022-08-01T03:02:33;26.40;46.20
49511;DHT22;35413;48.776;9.204;2022-08-01T03:05:01;26.40;46.80
49511;DHT22;35413;48.776;9.204;2022-08-01T03:07:28;26.40;46.40
49511;DHT22;35413;48.776;9.204;2022-08-01T03:09:56;26.40;46.30
49511;DHT22;35413;48.776;9.204;2022-08-01T03:12:26;26.40;46.30
49511;DHT22;35413;48.776;9.204;2022-08-01T03:14:54;26.40;46.40
49511;DHT22;35413;48.776;9.204;2022-08-01T03:17:23;26.40;46.40
49511;DHT22;35413;48.776;9.204;2022-08-01T03:19:51;26.40;46.60
49511;DHT22;35413;48.776;9.204;2022-08-01T03:22:18;26.40;46.50
49511;DHT22;35413;48.776;9.204;2022-08-01T03:24:49;26.40;46.60
49511;DHT22;35413;48.776;9.204;2022-08-01T03:27:18;26.40;46.70
49511;DHT22;35413;48.776;9.204;2022-08-01T03:29:47;26.40;46.70
49511;DHT22;35413;48.776;9.204;2022-08-01T03:32:14;26.40;46.80
49511;DHT22;35413;48.776;9.204;2022-08-01T03:34:40;26.40;47.40
49511;DHT22;35413;48.776;9.204;2022-08-01T03:39:42;26.40;46.90
49511;DHT22;35413;48.776;9.204;2022-08-01T03:42:14;26.40;47.00
49511;DHT22;35413;48.776;9.204;2022-08-01T03:44:41;26.40;47.00
49511;DHT22;35413;48.776;9.204;2022-08-01T03:47:11;26.40;47.10
49511;DHT22;35413;48.776;9.204;2022-08-01T03:49:42;26.40;47.10
49511;DHT22;35413;48.776;9.204;2022-08-01T03:52:09;26.30;47.20
49511;DHT22;35413;48.776;9.204;2022-08-01T03:54:37;26.40;47.30
49511;DHT22;35413;48.776;9.204;2022-08-01T03:57:04;26.30;47.20
49511;DHT22;35413;48.776;9.204;2022-08-01T03:59:31;26.30;47.30
49511;DHT22;35413;48.776;9.204;2022-08-01T04:01:58;26.30;47.30
49511;DHT22;35413;48.776;9.204;2022-08-01T04:04:24;26.40;47.50
49511;DHT22;35413;48.776;9.204;2022-08-01T04:06:50;26.30;47.50
49511;DHT22;35413;48.776;9.204;2022-08-01T04:09:19;26.30;47.50
49511;DHT22;35413;48.776;9.204;2022-08-01T04:11:46;26.30;47.60
49511;DHT22;35413;48.776;9.204;2022-08-01T04:14:12;26.30;47.70
49511;DHT22;35413;48.776;9.204;2022-08-01T04:16:39;26.30;47.70
49511;DHT22;35413;48.776;9.204;2022-08-01T04:19:05;26.30;47.80
49511;DHT22;35413;48.776;9.204;2022-08-01T04:21:34;26.30;47.80
49511;DHT22;35413;48.776;9.204;2022-08-01T04:24:08;26.30;47.80
49511;DHT22;35413;48.776;9.204;2022-08-01T04:26:36;26.30;48.00
49511;DHT22;35413;48.776;9.204;2022-08-01T04:29:04;26.30;48.00
49511;DHT22;35413;48.776;9.204;2022-08-01T04:31:31;26.30;48.00
49511;DHT22;35413;48.776;9.204;2022-08-01T04:33:58;26.30;48.70
49511;DHT22;35413;48.776;9.204;2022-08-01T04:36:26;26.30;48.10
49511;DHT22;35413;48.776;9.204;2022-08-01T04:38:59;26.30;48.20
49511;DHT22;35413;48.776;9.204;2022-08-01T04:41:26;26.30;48.30
49511;DHT22;35413;48.776;9.204;2022-08-01T04:43:52;26.30;48.40
49511;DHT22;35413;48.776;9.204;2022-08-01T04:46:19;26.30;48.50
49511;DHT22;35413;48.776;9.204;2022-08-01T04:48:45;26.30;48.50
49511;DHT22;35413;48.776;9.204;2022-08-01T04:51:13;26.30;48.50
49511;DHT22;35413;48.776;9.204;2022-08-01T04:53:41;26.30;48.60
49511;DHT22;35413;48.776;9.204;2022-08-01T04:56:06;26.30;48.60
49511;DHT22;35413;48.776;9.204;2022-08-01T04:58:32;26.30;48.60
49511;DHT22;35413;48.776;9.204;2022-08-01T05:00:58;26.30;48.70
49511;DHT22;35413;48.776;9.204;2022-08-01T05:03:23;26.30;48.90
49511;DHT22;35413;48.776;9.204;2022-08-01T05:05:49;26.30;48.90
49511;DHT22;35413;48.776;9.204;2022-08-01T05:08:14;26.30;49.00
49511;DHT22;35413;48.776;9.204;2022-08-01T05:10:41;26.30;48.80
49511;DHT22;35413;48.776;9.204;2022-08-01T05:13:07;26.30;49.00
49511;DHT22;35413;48.776;9.204;2022-08-01T05:15:35;26.30;49.10
49511;DHT22;35413;48.776;9.204;2022-08-01T05:18:02;26.30;49.20
49511;DHT22;35413;48.776;9.204;2022-08-01T05:20:28;26.30;49.30
49511;DHT22;35413;48.776;9.204;2022-08-01T05:22:53;26.30;49.30
49511;DHT22;35413;48.776;9.204;2022-08-01T05:25:19;26.30;49.40
49511;DHT22;35413;48.776;9.204;2022-08-01T05:27:44;26.30;49.70
49511;DHT22;35413;48.776;9.204;2022-08-01T05:30:10;26.30;49.80
49511;DHT22;35413;48.776;9.204;2022-08-01T05:32:36;26.30;49.80
49511;DHT22;35413;48.776;9.204;2022-08-01T05:35:02;26.30;49.80
49511;DHT22;35413;48.776;9.204;2022-08-01T05:37:28;26.30;49.90
49511;DHT22;35413;48.776;9.204;2022-08-01T05:39:54;26.30;50.00
49511;DHT22;35413;48.776;9.204;2022-08-01T05:42:19;26.20;49.90
49511;DHT22;35413;48.776;9.204;2022-08-01T05:44:45;26.20;50.20
49511;DHT22;35413;48.776;9.204;2022-08-01T05:47:11;26.20;50.30
49511;DHT22;35413;48.776;9.204;2022-08-01T05:49:36;26.20;50.30
49511;DHT22;35413;48.776;9.204;2022-08-01T05:52:02;26.30;50.70
49511;DHT22;35413;48.776;9.204;2022-08-01T05:54:28;26.30;50.90
49511;DHT22;35413;48.776;9.204;2022-08-01T05:56:54;26.20;50.80
49511;DHT22;35413;48.776;9.204;2022-08-01T05:59:25;26.30;50.80
49511;DHT22;35413;48.776;9.204;2022-08-01T06:01:50;26.30;50.80
49511;DHT22;35413;48.776;9.204;2022-08-01T06:04:16;26.30;50.90
49511;DHT22;35413;48.776;9.204;2022-08-01T06:06:42;26.30;51.00
49511;DHT22;35413;48.776;9.204;2022-08-01T06:09:07;26.30;51.20
49511;DHT22;35413;48.776;9.204;2022-08-01T06:11:33;26.30;51.30
49511;DHT22;35413;48.776;9.204;2022-08-01T06:13:58;26.30;51.40
49511;DHT22;35413;48.776;9.204;2022-08-01T06:16:24;26.30;51.40
49511;DHT22;35413;48.776;9.204;2022-08-01T06:18:50;26.20;51.70
49511;DHT22;35413;48.776;9.204;2022-08-01T06:21:15;26.00;52.40
49511;DHT22;35413;48.776;9.204;2022-08-01T06:23:41;26.00;52.60
49511;DHT22;35413;48.776;9.204;2022-08-01T06:26:07;26.00;52.70
49511;DHT22;35413;48.776;9.204;2022-08-01T06:28:33;26.00;52.80
49511;DHT22;35413;48.776;9.204;2022-08-01T06:30:59;25.90;53.40
49511;DHT22;35413;48.776;9.204;2022-08-01T06:33:26;26.00;53.40
49511;DHT22;35413;48.776;9.204;2022-08-01T06:35:51;25.80;53.90
49511;DHT22;35413;48.776;9.204;2022-08-01T06:38:17;25.50;54.50
49511;DHT22;35413;48.776;9.204;2022-08-01T06:40:43;25.40;55.20
49511;DHT22;35413;48.776;9.204;2022-08-01T06:43:08;25.50;55.10
49511;DHT22;35413;48.776;9.204;2022-08-01T06:45:37;25.60;54.80
49511;DHT22;35413;48.776;9.204;2022-08-01T06:48:03;25.50;54.90
49511;DHT22;35413;48.776;9.204;2022-08-01T06:50:28;25.50;55.20
49511;DHT22;35413;48.776;9.204;2022-08-01T06:52:54;25.50;54.90
49511;DHT22;35413;48.776;9.204;2022-08-01T06:55:19;25.40;55.10
49511;DHT22;35413;48.776;9.204;2022-08-01T06:57:50;25.30;55.40
49511;DHT22;35413;48.776;9.204;2022-08-01T07:00:17;25.40;54.90
49511;DHT22;35413;48.776;9.204;2022-08-01T07:02:46;25.70;54.60
49511;DHT22;35413;48.776;9.204;2022-08-01T07:05:12;25.60;54.40
49511;DHT22;35413;48.776;9.204;2022-08-01T07:07:38;25.60;54.30
49511;DHT22;35413;48.776;9.204;2022-08-01T07:10:04;25.60;54.20
49511;DHT22;35413;48.776;9.204;2022-08-01T07:12:30;25.50;54.30
49511;DHT22;35413;48.776;9.204;2022-08-01T07:14:56;25.70;54.20
49511;DHT22;35413;48.776;9.204;2022-08-01T07:17:21;25.70;54.10
49511;DHT22;35413;48.776;9.204;2022-08-01T07:19:48;25.60;54.00
49511;DHT22;35413;48.776;9.204;2022-08-01T07:22:13;25.80;53.90
49511;DHT22;35413;48.776;9.204;2022-08-01T07:24:42;25.80;54.00
49511;DHT22;35413;48.776;9.204;2022-08-01T07:27:08;25.80;53.80
49511;DHT22;35413;48.776;9.204;2022-08-01T07:29:33;25.80;54.10
49511;DHT22;35413;48.776;9.204;2022-08-01T07:31:59;25.80;54.10
49511;DHT22;35413;48.776;9.204;2022-08-01T07:34:25;25.80;53.90
49511;DHT22;35413;48.776;9.204;2022-08-01T07:36:51;25.80;54.10
49511;DHT22;35413;48.776;9.204;2022-08-01T07:39:17;25.80;53.90
49511;DHT22;35413;48.776;9.204;2022-08-01T07:41:43;25.70;54.20
49511;DHT22;35413;48.776;9.204;2022-08-01T07:44:09;25.70;54.10
49511;DHT22;35413;48.776;9.204;2022-08-01T07:46:34;25.80;54.00
49511;DHT22;35413;48.776;9.204;2022-08-01T07:49:00;25.90;54.10
49511;DHT22;35413;48.776;9.204;2022-08-01T07:51:25;26.00;53.90
49511;DHT22;35413;48.776;9.204;2022-08-01T07:53:51;26.00;53.80
49511;DHT22;35413;48.776;9.204;2022-08-01T07:56:17;25.90;53.80
49511;DHT22;35413;48.776;9.204;2022-08-01T07:58:42;26.00;53.70
49511;DHT22;35413;48.776;9.204;2022-08-01T08:01:08;26.00;53.40
49511;DHT22;35413;48.776;9.204;2022-08-01T08:03:34;26.00;53.50
49511;DHT22;35413;48.776;9.204;2022-08-01T08:05:59;26.00;53.30
49511;DHT22;35413;48.776;9.204;2022-08-01T08:08:25;26.00;53.50
49511;DHT22;35413;48.776;9.204;2022-08-01T08:10:50;26.00;53.80
49511;DHT22;35413;48.776;9.204;2022-08-01T08:13:17;26.00;53.60
49511;DHT22;35413;48.776;9.204;2022-08-01T08:15:43;26.00;53.50
49511;DHT22;35413;48.776;9.204;2022-08-01T08:18:08;25.90;53.20
49511;DHT22;35413;48.776;9.204;2022-08-01T08:20:34;26.10;53.50
49511;DHT22;35413;48.776;9.204;2022-08-01T08:23:00;26.00;53.60
49511;DHT22;35413;48.776;9.204;2022-08-01T08:25:26;26.00;53.50
49511;DHT22;35413;48.776;9.204;2022-08-01T08:27:52;26.10;54.20
49511;DHT22;35413;48.776;9.204;2022-08-01T08:30:18;26.20;53.60
49511;DHT22;35413;48.776;9.204;2022-08-01T08:32:44;26.20;53.40
49511;DHT22;35413;48.776;9.204;2022-08-01T08:35:10;26.10;53.30
49511;DHT22;35413;48.776;9.204;2022-08-01T08:37:37;26.20;54.20
49511;DHT22;35413;48.776;9.204;2022-08-01T08:40:04;26.20;53.50
49511;DHT22;35413;48.776;9.204;2022-08-01T08:42:30;26.00;53.40
49511;DHT22;35413;48.776;9.204;2022-08-01T08:44:55;26.10;53.30
49511;DHT22;35413;48.776;9.204;2022-08-01T08:47:22;26.20;53.50
49511;DHT22;35413;48.776;9.204;2022-08-01T08:49:51;26.20;53.30
49511;DHT22;35413;48.776;9.204;2022-08-01T08:52:21;26.30;53.10
49511;DHT22;35413;48.776;9.204;2022-08-01T08:54:48;26.30;52.70
49511;DHT22;35413;48.776;9.204;2022-08-01T08:57:15;26.40;52.60
49511;DHT22;35413;48.776;9.204;2022-08-01T08:59:42;26.40;52.60
49511;DHT22;35413;48.776;9.204;2022-08-01T09:02:09;26.50;52.50
49511;DHT22;35413;48.776;9.204;2022-08-01T09:04:36;26.50;53.10
49511;DHT22;35413;48.776;9.204;2022-08-01T09:07:04;26.50;52.40
49511;DHT22;35413;48.776;9.204;2022-08-01T09:09:30;26.50;52.40
49511;DHT22;35413;48.776;9.204;2022-08-01T09:11:57;26.60;52.50
49511;DHT22;35413;48.776;9.204;2022-08-01T09:14:23;26.60;52.40
49511;DHT22;35413;48.776;9.204;2022-08-01T09:17:20;26.60;52.50
49511;DHT22;35413;48.776;9.204;2022-08-01T09:19:48;26.60;52.60
49511;DHT22;35413;48.776;9.204;2022-08-01T09:22:19;26.60;52.50
49511;DHT22;35413;48.776;9.204;2022-08-01T09:25:01;26.60;52.40
49511;DHT22;35413;48.776;9.204;2022-08-01T09:27:28;26.60;52.40
49511;DHT22;35413;48.776;9.204;2022-08-01T09:29:54;26.60;52.50
49511;DHT22;35413;48.776;9.204;2022-08-01T09:32:20;26.60;52.40
49511;DHT22;35413;48.776;9.204;2022-08-01T09:34:46;26.60;52.40
49511;DHT22;35413;48.776;9.204;2022-08-01T09:37:12;26.60;52.40
49511;DHT22;35413;48.776;9.204;2022-08-01T09:39:43;26.60;52.50
49511;DHT22;35413;48.776;9.204;2022-08-01T09:42:24;26.70;52.60
49511;DHT22;35413;48.776;9.204;2022-08-01T09:44:51;26.60;52.50
49511;DHT22;35413;48.776;9.204;2022-08-01T09:47:20;26.60;52.50
49511;DHT22;35413;48.776;9.204;2022-08-01T09:49:54;26.70;52.60
49511;DHT22;35413;48.776;9.204;2022-08-01T09:52:22;26.70;52.50
49511;DHT22;35413;48.776;9.204;2022-08-01T09:54:59;26.70;52.60
49511;DHT22;35413;48.776;9.204;2022-08-01T09:57:26;26.70;52.50
49511;DHT22;35413;48.776;9.204;2022-08-01T09:59:56;26.70;52.60
49511;DHT22;35413;48.776;9.204;2022-08-01T10:02:37;26.70;52.90
49511;DHT22;35413;48.776;9.204;2022-08-01T10:05:06;26.70;52.60
49511;DHT22;35413;48.776;9.204;2022-08-01T10:07:33;26.70;52.70
49511;DHT22;35413;48.776;9.204;2022-08-01T10:10:10;26.70;52.70
49511;DHT22;35413;48.776;9.204;2022-08-01T10:12:36;26.70;52.60
49511;DHT22;35413;48.776;9.204;2022-08-01T10:15:03;26.70;52.60
49511;DHT22;35413;48.776;9.204;2022-08-01T10:17:29;26.70;52.60
49511;DHT22;35413;48.776;9.204;2022-08-01T10:19:55;26.80;52.70
49511;DHT22;35413;48.776;9.204;2022-08-01T10:22:24;26.80;52.80
49511;DHT22;35413;48.776;9.204;2022-08-01T10:24:54;26.70;52.60
49511;DHT22;35413;48.776;9.204;2022-08-01T10:27:21;26.80;52.70
49511;DHT22;35413;48.776;9.204;2022-08-01T10:29:59;26.80;52.90
49511;DHT22;35413;48.776;9.204;2022-08-01T10:32:34;26.70;52.90
49511;DHT22;35413;48.776;9.204;2022-08-01T10:35:06;26.80;53.70
49511;DHT22;35413;48.776;9.204;2022-08-01T10:37:34;26.80;53.10
49511;DHT22;35413;48.776;9.204;2022-08-01T10:40:01;26.80;53.10
49511;DHT22;35413;48.776;9.204;2022-08-01T10:42:27;26.80;53.10
49511;DHT22;35413;48.776;9.204;2022-08-01T10:44:54;26.80;55.30
49511;DHT22;35413;48.776;9.204;2022-08-01T10:47:53;26.80;55.30
49511;DHT22;35413;48.776;9.204;2022-08-01T10:50:29;26.80;54.30
49511;DHT22;35413;48.776;9.204;2022-08-01T10:53:18;26.80;54.30
49511;DHT22;35413;48.776;9.204;2022-08-01T10:56:02;26.80;53.90
49511;DHT22;35413;48.776;9.204;2022-08-01T10:58:37;26.80;54.00
49511;DHT22;35413;48.776;9.204;2022-08-01T11:01:32;26.90;53.70
49511;DHT22;35413;48.776;9.204;2022-08-01T11:11:27;26.80;53.50
49511;DHT22;35413;48.776;9.204;2022-08-01T11:14:05;26.80;53.50
49511;DHT22;35413;48.776;9.204;2022-08-01T11:16:41;26.80;53.50
49511;DHT22;35413;48.776;9.204;2022-08-01T11:19:08;26.80;53.50
49511;DHT22;35413;48.776;9.204;2022-08-01T11:27:22;26.80;53.30
49511;DHT22;35413;48.776;9.204;2022-08-01T11:32:49;26.80;53.30
49511;DHT22;35413;48.776;9.204;2022-08-01T11:35:16;26.80;53.20
49511;DHT22;35413;48.776;9.204;2022-08-01T11:37:42;26.80;53.20
49511;DHT22;35413;48.776;9.204;2022-08-01T11:42:50;26.90;53.30
49511;DHT22;35413;48.776;9.204;2022-08-01T11:45:16;26.90;53.20
49511;DHT22;35413;48.776;9.204;2022-08-01T11:47:49;26.90;53.20
49511;DHT22;35413;48.776;9.204;2022-08-01T11:50:35;26.90;53.10
49511;DHT22;35413;48.776;9.204;2022-08-01T11:53:04;26.90;53.30
49511;DHT22;35413;48.776;9.204;2022-08-01T11:55:30;26.80;53.50
49511;DHT22;35413;48.776;9.204;2022-08-01T11:58:06;26.90;54.10
49511;DHT22;35413;48.776;9.204;2022-08-01T12:00:32;26.90;53.70
49511;DHT22;35413;48.776;9.204;2022-08-01T12:03:04;26.90;53.80
49511;DHT22;35413;48.776;9.204;2022-08-01T12:05:32;26.80;53.70
49511;DHT22;35413;48.776;9.204;2022-08-01T12:07:59;26.90;53.60
49511;DHT22;35413;48.776;9.204;2022-08-01T12:10:28;26.90;53.60
49511;DHT22;35413;48.776;9.204;2022-08-01T12:13:01;26.90;53.50
49511;DHT22;35413;48.776;9.204;2022-08-01T12:15:36;26.90;53.50
49511;DHT22;35413;48.776;9.204;2022-08-01T12:18:04;26.90;54.10
49511;DHT22;35413;48.776;9.204;2022-08-01T12:20:36;26.90;53.50
49511;DHT22;35413;48.776;9.204;2022-08-01T12:23:06;26.90;53.50
49511;DHT22;35413;48.776;9.204;2022-08-01T12:25:33;26.90;53.50
49511;DHT22;35413;48.776;9.204;2022-08-01T12:28:08;26.90;53.70
49511;DHT22;35413;48.776;9.204;2022-08-01T12:30:35;26.90;53.50
49511;DHT22;35413;48.776;9.204;2022-08-01T12:33:02;26.90;53.50
49511;DHT22;35413;48.776;9.204;2022-08-01T12:35:29;27.00;53.60
49511;DHT22;35413;48.776;9.204;2022-08-01T12:38:00;27.00;53.60
49511;DHT22;35413;48.776;9.204;2022-08-01T12:40:29;26.90;53.60
49511;DHT22;35413;48.776;9.204;2022-08-01T12:43:00;26.90;53.50
49511;DHT22;35413;48.776;9.204;2022-08-01T12:45:49;27.00;53.60
49511;DHT22;35413;48.776;9.204;2022-08-01T12:48:15;26.90;53.60
49511;DHT22;35413;48.776;9.204;2022-08-01T12:50:47;27.00;53.60
49511;DHT22;35413;48.776;9.204;2022-08-01T12:53:13;26.90;53.50
49511;DHT22;35413;48.776;9.204;2022-08-01T12:55:54;27.00;53.60
49511;DHT22;35413;48.776;9.204;2022-08-01T12:58:20;27.00;53.60
49511;DHT22;35413;48.776;9.204;2022-08-01T13:01:01;27.00;53.60
49511;DHT22;35413;48.776;9.204;2022-08-01T13:03:27;27.00;53.70
49511;DHT22;35413;48.776;9.204;2022-08-01T13:05:54;27.00;53.70
49511;DHT22;35413;48.776;9.204;2022-08-01T13:08:22;27.00;53.60
49511;DHT22;35413;48.776;9.204;2022-08-01T13:10:49;27.00;53.90
49511;DHT22;35413;48.776;9.204;2022-08-01T13:13:17;26.90;53.50
49511;DHT22;35413;48.776;9.204;2022-08-01T13:15:44;27.00;53.60
49511;DHT22;35413;48.776;9.204;2022-08-01T13:18:31;27.00;53.70
49511;DHT22;35413;48.776;9.204;2022-08-01T13:21:17;26.90;53.50
49511;DHT22;35413;48.776;9.204;2022-08-01T13:24:05;27.00;53.60
49511;DHT22;35413;48.776;9.204;2022-08-01T13:26:42;27.00;53.60
49511;DHT22;35413;48.776;9.204;2022-08-01T13:29:09;27.00;53.60
49511;DHT22;35413;48.776;9.204;2022-08-01T13:31:36;27.00;53.60
49511;DHT22;35413;48.776;9.204;2022-08-01T13:34:02;27.00;53.70
49511;DHT22;35413;48.776;9.204;2022-08-01T13:36:28;26.90;53.70
49511;DHT22;35413;48.776;9.204;2022-08-01T13:38:55;27.00;53.80
49511;DHT22;35413;48.776;9.204;2022-08-01T13:41:39;27.00;53.90
49511;DHT22;35413;48.776;9.204;2022-08-01T13:44:05;27.00;53.80
49511;DHT22;35413;48.776;9.204;2022-08-01T13:46:31;27.00;54.00
49511;DHT22;35413;48.776;9.204;2022-08-01T13:48:57;27.00;53.90
49511;DHT22;35413;48.776;9.204;2022-08-01T13:51:23;27.00;53.80
49511;DHT22;35413;48.776;9.204;2022-08-01T13:53:48;27.00;53.80
49511;DHT22;35413;48.776;9.204;2022-08-01T13:56:14;27.00;53.80
49511;DHT22;35413;48.776;9.204;2022-08-01T13:58:43;27.00;53.80
49511;DHT22;35413;48.776;9.204;2022-08-01T14:01:08;26.90;54.30
49511;DHT22;35413;48.776;9.204;2022-08-01T14:03:34;27.00;54.70
49511;DHT22;35413;48.776;9.204;2022-08-01T14:06:00;27.00;54.30
49511;DHT22;35413;48.776;9.204;2022-08-01T14:08:26;27.00;54.00
49511;DHT22;35413;48.776;9.204;2022-08-01T14:10:51;27.00;54.00
49511;DHT22;35413;48.776;9.204;2022-08-01T14:13:19;27.00;53.90
49511;DHT22;35413;48.776;9.204;2022-08-01T14:15:44;27.00;54.20
49511;DHT22;35413;48.776;9.204;2022-08-01T14:18:10;27.00;54.20
49511;DHT22;35413;48.776;9.204;2022-08-01T14:20:37;27.00;54.60
49511;DHT22;35413;48.776;9.204;2022-08-01T14:23:03;27.00;54.30
49511;DHT22;35413;48.776;9.204;2022-08-01T14:25:29;27.00;54.40
49511;DHT22;35413;48.776;9.204;2022-08-01T14:27:55;27.00;54.60
49511;DHT22;35413;48.776;9.204;2022-08-01T14:30:21;27.00;54.30
49511;DHT22;35413;48.776;9.204;2022-08-01T14:32:46;27.00;54.50
49511;DHT22;35413;48.776;9.204;2022-08-01T14:35:12;27.00;54.70
49511;DHT22;35413;48.776;9.204;2022-08-01T14:37:38;27.00;54.70
49511;DHT22;35413;48.776;9.204;2022-08-01T14:40:04;27.00;54.90
49511;DHT22;35413;48.776;9.204;2022-08-01T14:42:35;27.00;54.80
49511;DHT22;35413;48.776;9.204;2022-08-01T14:45:01;27.10;54.90
49511;DHT22;35413;48.776;9.204;2022-08-01T14:47:27;27.00;54.90
49511;DHT22;35413;48.776;9.204;2022-08-01T14:49:52;27.00;54.90
49511;DHT22;35413;48.776;9.204;2022-08-01T14:52:18;27.10;55.20
49511;DHT22;35413;48.776;9.204;2022-08-01T14:54:44;27.00;55.10
49511;DHT22;35413;48.776;9.204;2022-08-01T14:57:10;27.10;55.00
49511;DHT22;35413;48.776;9.204;2022-08-01T14:59:36;27.00;54.80
49511;DHT22;35413;48.776;9.204;2022-08-01T15:02:01;27.10;55.20
49511;DHT22;35413;48.776;9.204;2022-08-01T15:04:27;27.10;54.80
49511;DHT22;35413;48.776;9.204;2022-08-01T15:06:53;27.10;54.90
49511;DHT22;35413;48.776;9.204;2022-08-01T15:09:19;27.10;54.70
49511;DHT22;35413;48.776;9.204;2022-08-01T15:11:44;27.10;55.10
49511;DHT22;35413;48.776;9.204;2022-08-01T15:14:12;27.10;55.30
49511;DHT22;35413;48.776;9.204;2022-08-01T15:16:56;27.10;55.30
49511;DHT22;35413;48.776;9.204;2022-08-01T15:19:21;27.10;55.40
49511;DHT22;35413;48.776;9.204;2022-08-01T15:21:47;27.10;54.30
49511;DHT22;35413;48.776;9.204;2022-08-01T15:24:13;27.20;53.30
49511;DHT22;35413;48.776;9.204;2022-08-01T15:26:38;27.30;52.90
49511;DHT22;35413;48.776;9.204;2022-08-01T15:29:04;27.30;52.40
49511;DHT22;35413;48.776;9.204;2022-08-01T15:31:30;27.40;52.50
49511;DHT22;35413;48.776;9.204;2022-08-01T15:33:55;27.30;52.90
49511;DHT22;35413;48.776;9.204;2022-08-01T15:36:21;27.30;52.60
49511;DHT22;35413;48.776;9.204;2022-08-01T15:38:47;27.20;52.30
49511;DHT22;35413;48.776;9.204;2022-08-01T15:41:12;27.20;52.50
49511;DHT22;35413;48.776;9.204;2022-08-01T15:43:38;27.20;52.40
49511;DHT22;35413;48.776;9.204;2022-08-01T15:46:04;27.20;52.40
49511;DHT22;35413;48.776;9.204;2022-08-01T15:48:30;27.20;52.40
49511;DHT22;35413;48.776;9.204;2022-08-01T15:50:55;27.20;52.30
49511;DHT22;35413;48.776;9.204;2022-08-01T15:53:21;27.20;52.30
49511;DHT22;35413;48.776;9.204;2022-08-01T15:55:46;27.20;52.40
49511;DHT22;35413;48.776;9.204;2022-08-01T15:58:12;27.20;52.30
49511;DHT22;35413;48.776;9.204;2022-08-01T16:00:38;27.10;52.10
49511;DHT22;35413;48.776;9.204;2022-08-01T16:03:03;27.10;52.10
49511;DHT22;35413;48.776;9.204;2022-08-01T16:05:29;27.10;52.00
49511;DHT22;35413;48.776;9.204;2022-08-01T16:07:55;27.10;52.00